sensor_id;sensor_type;location;lat;lon;timestamp;pressure;altitude;pressure_sealevel;temperature;humidity
65276;BME280;51875;49.994;14.052;2023-02-17T00:00:13;98984.81;;;6.23;100.00
65276;BME280;51875;49.994;14.052;2023-02-17T00:01:49;98970.03;;;6.41;100.00
65276;BME280;51875;49.994;14.052;2023-02-17T00:03:04;98978.75;;;6.19;100.00
65276;BME280;51875;49.994;14.052;2023-02-17T00:04:20;98970.94;;;6.21;100.00
65276;BME280;51875;49.994;14.052;2023-02-17T00:05:38;98968.34;;;5.99;100.00
65276;BME280;51875;49.994;14.052;2023-02-17T00:06:55;98966.63;;;5.87;100.00
65276;BME280;51875;49.994;14.052;2023-02-17T00:08:10;98970.09;;;5.83;100.00
65276;BME280;51875;49.994;14.052;2023-02-17T00:09:26;98961.47;;;6.01;100.00
65276;BME280;51875;49.994;14.052;2023-02-17T00:10:42;98969.22;;;6.11;100.00
65276;BME280;51875;49.994;14.052;2023-02-17T00:11:57;98964.03;;;5.83;100.00
65276;BME280;51875;49.994;14.052;2023-02-17T00:13:13;98965.75;;;5.84;100.00
65276;BME280;51875;49.994;14.052;2023-02-17T00:14:29;98970.97;;;6.04;100.00
65276;BME280;51875;49.994;14.052;2023-02-17T00:15:44;98967.50;;;6.10;100.00
65276;BME280;51875;49.994;14.052;2023-02-17T00:17:00;98963.19;;;6.05;100.00
65276;BME280;51875;49.994;14.052;2023-02-17T00:18:16;98969.22;;;6.17;100.00
65276;BME280;51875;49.994;14.052;2023-02-17T00:19:31;98964.03;;;6.29;100.00
65276;BME280;51875;49.994;14.052;2023-02-17T00:20:47;98956.19;;;6.26;100.00
65276;BME280;51875;49.994;14.052;2023-02-17T00:22:02;98957.94;;;6.27;100.00
65276;BME280;51875;49.994;14.052;2023-02-17T00:23:19;98962.28;;;6.22;100.00
65276;BME280;51875;49.994;14.052;2023-02-17T00:24:37;98947.56;;;6.12;100.00
65276;BME280;51875;49.994;14.052;2023-02-17T00:25:53;98957.97;;;5.98;100.00
65276;BME280;51875;49.994;14.052;2023-02-17T00:27:09;98944.97;;;6.05;100.00
65276;BME280;51875;49.994;14.052;2023-02-17T00:28:24;98954.50;;;5.82;100.00
65276;BME280;51875;49.994;14.052;2023-02-17T00:29:40;98954.50;;;5.63;100.00
65276;BME280;51875;49.994;14.052;2023-02-17T00:30:55;98952.72;;;5.35;100.00
65276;BME280;51875;49.994;14.052;2023-02-17T00:32:11;98956.22;;;5.45;100.00
65276;BME280;51875;49.994;14.052;2023-02-17T00:33:27;98960.53;;;5.56;100.00
65276;BME280;51875;49.994;14.052;2023-02-17T00:34:42;98954.50;;;5.63;100.00
65276;BME280;51875;49.994;14.052;2023-02-17T00:35:58;98959.69;;;5.78;100.00
65276;BME280;51875;49.994;14.052;2023-02-17T00:37:14;98959.69;;;5.91;100.00
65276;BME280;51875;49.994;14.052;2023-02-17T00:38:29;98958.81;;;5.65;100.00
65276;BME280;51875;49.994;14.052;2023-02-17T00:39:45;98957.09;;;5.40;100.00
65276;BME280;51875;49.994;14.052;2023-02-17T00:41:00;98968.19;;;4.84;100.00
65276;BME280;51875;49.994;14.052;2023-02-17T00:42:16;98961.19;;;4.63;100.00
65276;BME280;51875;49.994;14.052;2023-02-17T00:43:32;98961.09;;;4.43;100.00
65276;BME280;51875;49.994;14.052;2023-02-17T00:44:48;98968.00;;;4.44;100.00
65276;BME280;51875;49.994;14.052;2023-02-17T00:46:03;98954.06;;;4.23;100.00
65276;BME280;51875;49.994;14.052;2023-02-17T00:47:19;98965.47;;;4.59;100.00
65276;BME280;51875;49.994;14.052;2023-02-17T00:48:35;98967.13;;;4.38;100.00
65276;BME280;51875;49.994;14.052;2023-02-17T00:49:51;98971.50;;;4.49;100.00
65276;BME280;51875;49.994;14.052;2023-02-17T00:51:07;98969.09;;;5.02;100.00
65276;BME280;51875;49.994;14.052;2023-02-17T00:52:23;98965.50;;;4.67;100.00
65276;BME280;51875;49.994;14.052;2023-02-17T00:53:38;98962.09;;;4.77;100.00
65276;BME280;51875;49.994;14.052;2023-02-17T00:54:55;98963.06;;;5.06;100.00
65276;BME280;51875;49.994;14.052;2023-02-17T00:56:11;98962.13;;;4.79;100.00
65276;BME280;51875;49.994;14.052;2023-02-17T00:57:27;98959.53;;;4.82;100.00
65276;BME280;51875;49.994;14.052;2023-02-17T00:58:46;98952.69;;;5.01;100.00
65276;BME280;51875;49.994;14.052;2023-02-17T01:00:03;98953.59;;;5.23;100.00
65276;BME280;51875;49.994;14.052;2023-02-17T01:01:19;98957.94;;;5.32;100.00
65276;BME280;51875;49.994;14.052;2023-02-17T01:02:35;98957.06;;;5.22;100.00
65276;BME280;51875;49.994;14.052;2023-02-17T01:03:50;98949.25;;;5.18;100.00
65276;BME280;51875;49.994;14.052;2023-02-17T01:05:06;98956.19;;;5.23;100.00
65276;BME280;51875;49.994;14.052;2023-02-17T01:06:24;98947.53;;;5.26;100.00
65276;BME280;51875;49.994;14.052;2023-02-17T01:07:41;98944.09;;;5.35;100.00
65276;BME280;51875;49.994;14.052;2023-02-17T01:08:56;98950.16;;;5.34;100.00
65276;BME280;51875;49.994;14.052;2023-02-17T01:10:12;98950.88;;;4.78;100.00
65276;BME280;51875;49.994;14.052;2023-02-17T01:11:29;98953.50;;;4.94;100.00
65276;BME280;51875;49.994;14.052;2023-02-17T01:12:45;98951.75;;;4.88;100.00
65276;BME280;51875;49.994;14.052;2023-02-17T01:14:03;98952.63;;;4.95;100.00
65276;BME280;51875;49.994;14.052;2023-02-17T01:15:20;98948.38;;;5.05;100.00
65276;BME280;51875;49.994;14.052;2023-02-17T01:16:38;98944.91;;;5.01;100.00
65276;BME280;51875;49.994;14.052;2023-02-17T01:17:54;98941.22;;;4.40;100.00
65276;BME280;51875;49.994;14.052;2023-02-17T01:19:12;98942.88;;;4.32;100.00
65276;BME280;51875;49.994;14.052;2023-02-17T01:20:28;98945.34;;;4.12;100.00
65276;BME280;51875;49.994;14.052;2023-02-17T01:21:44;98953.19;;;4.21;100.00
65276;BME280;51875;49.994;14.052;2023-02-17T01:23:00;98945.94;;;3.72;100.00
65276;BME280;51875;49.994;14.052;2023-02-17T01:24:16;98945.94;;;3.72;100.00
65276;BME280;51875;49.994;14.052;2023-02-17T01:25:35;98940.03;;;3.88;100.00
65276;BME280;51875;49.994;14.052;2023-02-17T01:26:51;98940.94;;;3.96;100.00
65276;BME280;51875;49.994;14.052;2023-02-17T01:28:07;98940.63;;;3.56;100.00
65276;BME280;51875;49.994;14.052;2023-02-17T01:29:22;98932.03;;;3.57;100.00
65276;BME280;51875;49.994;14.052;2023-02-17T01:30:38;98936.38;;;3.64;100.00
65276;BME280;51875;49.994;14.052;2023-02-17T01:31:54;98933.84;;;3.72;100.00
65276;BME280;51875;49.994;14.052;2023-02-17T01:33:09;98929.84;;;4.13;100.00
65276;BME280;51875;49.994;14.052;2023-02-17T01:34:25;98924.72;;;4.27;100.00
65276;BME280;51875;49.994;14.052;2023-02-17T01:35:41;98916.16;;;4.48;100.00
65276;BME280;51875;49.994;14.052;2023-02-17T01:36:56;98918.78;;;4.56;100.00
65276;BME280;51875;49.994;14.052;2023-02-17T01:38:12;98911.88;;;4.58;100.00
65276;BME280;51875;49.994;14.052;2023-02-17T01:39:27;98916.25;;;4.70;100.00
65276;BME280;51875;49.994;14.052;2023-02-17T01:40:47;98907.59;;;4.66;100.00
65276;BME280;51875;49.994;14.052;2023-02-17T01:42:02;98901.53;;;4.66;100.00
65276;BME280;51875;49.994;14.052;2023-02-17T01:43:18;98902.41;;;4.65;100.00
65276;BME280;51875;49.994;14.052;2023-02-17T01:44:34;98905.84;;;4.59;100.00
65276;BME280;51875;49.994;14.052;2023-02-17T01:45:57;98895.09;;;3.88;100.00
65276;BME280;51875;49.994;14.052;2023-02-17T01:47:13;98897.78;;;3.97;100.00
65276;BME280;51875;49.994;14.052;2023-02-17T01:48:48;98891.63;;;3.81;100.00
65276;BME280;51875;49.994;14.052;2023-02-17T01:50:05;98899.34;;;3.76;100.00
65276;BME280;51875;49.994;14.052;2023-02-17T01:51:25;98889.25;;;4.18;100.00
65276;BME280;51875;49.994;14.052;2023-02-17T01:52:42;98890.91;;;4.10;100.00
65276;BME280;51875;49.994;14.052;2023-02-17T01:54:11;98893.28;;;3.71;100.00
65276;BME280;51875;49.994;14.052;2023-02-17T01:55:28;98882.78;;;3.49;100.00
65276;BME280;51875;49.994;14.052;2023-02-17T01:56:45;98889.91;;;3.85;100.00
65276;BME280;51875;49.994;14.052;2023-02-17T01:58:03;98895.25;;;4.13;100.00
65276;BME280;51875;49.994;14.052;2023-02-17T01:59:21;98893.56;;;4.19;100.00
65276;BME280;51875;49.994;14.052;2023-02-17T02:00:37;98894.47;;;4.29;100.00
65276;BME280;51875;49.994;14.052;2023-02-17T02:01:56;98897.72;;;3.86;100.00
65276;BME280;51875;49.994;14.052;2023-02-17T02:03:13;98891.22;;;3.30;100.00
65276;BME280;51875;49.994;14.052;2023-02-17T02:04:32;98892.13;;;3.30;100.00
65276;BME280;51875;49.994;14.052;2023-02-17T02:05:49;98895.09;;;3.81;100.00
65276;BME280;51875;49.994;14.052;2023-02-17T02:07:13;98886.22;;;3.50;100.00
65276;BME280;51875;49.994;14.052;2023-02-17T02:08:40;98893.16;;;3.54;100.00
65276;BME280;51875;49.994;14.052;2023-02-17T02:09:58;98882.72;;;3.46;100.00
65276;BME280;51875;49.994;14.052;2023-02-17T02:11:14;98888.69;;;3.37;100.00
65276;BME280;51875;49.994;14.052;2023-02-17T02:12:34;98884.53;;;3.57;100.00
65276;BME280;51875;49.994;14.052;2023-02-17T02:13:50;98889.88;;;3.78;100.00
65276;BME280;51875;49.994;14.052;2023-02-17T02:15:17;98886.94;;;3.35;100.00
65276;BME280;51875;49.994;14.052;2023-02-17T02:18:32;98877.25;;;3.09;100.00
65276;BME280;51875;49.994;14.052;2023-02-17T02:27:53;98866.53;;;3.71;100.00
65276;BME280;51875;49.994;14.052;2023-02-17T02:31:16;98864.91;;;3.91;100.00
65276;BME280;51875;49.994;14.052;2023-02-17T02:32:42;98861.50;;;4.00;100.00
65276;BME280;51875;49.994;14.052;2023-02-17T02:34:05;98859.69;;;3.87;100.00
65276;BME280;51875;49.994;14.052;2023-02-17T02:35:41;98862.06;;;3.54;100.00
65276;BME280;51875;49.994;14.052;2023-02-17T02:37:08;98868.25;;;3.72;100.00
65276;BME280;51875;49.994;14.052;2023-02-17T02:38:39;98868.31;;;3.81;100.00
65276;BME280;51875;49.994;14.052;2023-02-17T02:39:59;98873.59;;;3.98;100.00
65276;BME280;51875;49.994;14.052;2023-02-17T02:41:26;98865.84;;;4.04;100.00
65276;BME280;51875;49.994;14.052;2023-02-17T02:42:43;98855.44;;;3.95;100.00
65276;BME280;51875;49.994;14.052;2023-02-17T02:44:03;98852.78;;;3.84;100.00
65276;BME280;51875;49.994;14.052;2023-02-17T02:45:20;98850.59;;;3.19;100.00
65276;BME280;51875;49.994;14.052;2023-02-17T02:46:36;98854.25;;;3.45;100.00
65276;BME280;51875;49.994;14.052;2023-02-17T02:47:53;98848.00;;;3.18;100.00
65276;BME280;51875;49.994;14.052;2023-02-17T02:49:10;98848.81;;;3.14;100.00
65276;BME280;51875;49.994;14.052;2023-02-17T02:52:24;98843.50;;;2.98;100.00
65276;BME280;51875;49.994;14.052;2023-02-17T02:54:51;98837.13;;;3.64;100.00
65276;BME280;51875;49.994;14.052;2023-02-17T03:01:41;98828.25;;;3.28;100.00
65276;BME280;51875;49.994;14.052;2023-02-17T03:03:21;98830.84;;;3.31;100.00
65276;BME280;51875;49.994;14.052;2023-02-17T03:06:48;98810.38;;;3.66;100.00
65276;BME280;51875;49.994;14.052;2023-02-17T03:09:24;98812.16;;;3.75;100.00
65276;BME280;51875;49.994;14.052;2023-02-17T03:10:51;98807.03;;;3.81;100.00
65276;BME280;51875;49.994;14.052;2023-02-17T03:12:07;98819.09;;;3.79;100.00
65276;BME280;51875;49.994;14.052;2023-02-17T03:13:23;98810.50;;;3.88;100.00
65276;BME280;51875;49.994;14.052;2023-02-17T03:14:38;98813.16;;;4.01;100.00
65276;BME280;51875;49.994;14.052;2023-02-17T03:15:56;98820.09;;;4.11;100.00
65276;BME280;51875;49.994;14.052;2023-02-17T03:17:11;98811.53;;;4.28;100.00
65276;BME280;51875;49.994;14.052;2023-02-17T03:18:31;98802.06;;;4.37;100.00
65276;BME280;51875;49.994;14.052;2023-02-17T03:19:46;98803.78;;;4.42;100.00
65276;BME280;51875;49.994;14.052;2023-02-17T03:21:07;98800.34;;;4.43;100.00
65276;BME280;51875;49.994;14.052;2023-02-17T03:22:30;98814.19;;;4.46;100.00
65276;BME280;51875;49.994;14.052;2023-02-17T03:23:47;98815.00;;;4.27;100.00
65276;BME280;51875;49.994;14.052;2023-02-17T03:25:03;98820.91;;;4.02;100.00
65276;BME280;51875;49.994;14.052;2023-02-17T03:26:19;98812.41;;;4.33;100.00
65276;BME280;51875;49.994;14.052;2023-02-17T03:27:34;98805.50;;;4.38;100.00
65276;BME280;51875;49.994;14.052;2023-02-17T03:28:50;98806.34;;;4.31;100.00
65276;BME280;51875;49.994;14.052;2023-02-17T03:30:08;98803.75;;;4.29;100.00
65276;BME280;51875;49.994;14.052;2023-02-17T03:31:24;98801.19;;;4.42;100.00
65276;BME280;51875;49.994;14.052;2023-02-17T03:32:40;98790.00;;;4.49;100.00
65276;BME280;51875;49.994;14.052;2023-02-17T03:33:57;98784.78;;;4.46;100.00
65276;BME280;51875;49.994;14.052;2023-02-17T03:35:13;98789.09;;;4.47;100.00
65276;BME280;51875;49.994;14.052;2023-02-17T03:36:29;98789.84;;;4.07;100.00
65276;BME280;51875;49.994;14.052;2023-02-17T03:37:45;98782.09;;;4.10;100.00
65276;BME280;51875;49.994;14.052;2023-02-17T03:39:00;98777.81;;;4.20;100.00
65276;BME280;51875;49.994;14.052;2023-02-17T03:40:16;98784.63;;;3.94;100.00
65276;BME280;51875;49.994;14.052;2023-02-17T03:41:32;98795.00;;;3.98;100.00
65276;BME280;51875;49.994;14.052;2023-02-17T03:42:48;98789.88;;;4.12;100.00
65276;BME280;51875;49.994;14.052;2023-02-17T03:44:03;98789.03;;;4.17;100.00
65276;BME280;51875;49.994;14.052;2023-02-17T03:45:19;98789.75;;;3.84;100.00
65276;BME280;51875;49.994;14.052;2023-02-17T03:46:38;98783.00;;;4.29;100.00
65276;BME280;51875;49.994;14.052;2023-02-17T03:47:54;98785.63;;;4.31;100.00
65276;BME280;51875;49.994;14.052;2023-02-17T03:49:10;98789.09;;;4.44;100.00
65276;BME280;51875;49.994;14.052;2023-02-17T03:50:25;98786.53;;;4.53;100.00
65276;BME280;51875;49.994;14.052;2023-02-17T03:51:41;98781.34;;;4.56;100.00
65276;BME280;51875;49.994;14.052;2023-02-17T03:52:57;98782.25;;;4.68;100.00
65276;BME280;51875;49.994;14.052;2023-02-17T03:54:12;98781.38;;;4.75;100.00
65276;BME280;51875;49.994;14.052;2023-02-17T03:55:28;98784.84;;;4.77;100.00
65276;BME280;51875;49.994;14.052;2023-02-17T03:56:44;98779.69;;;4.92;100.00
65276;BME280;51875;49.994;14.052;2023-02-17T03:57:59;98783.09;;;4.88;100.00
65276;BME280;51875;49.994;14.052;2023-02-17T03:59:15;98783.97;;;5.00;100.00
65276;BME280;51875;49.994;14.052;2023-02-17T04:00:30;98784.84;;;5.03;100.00
65276;BME280;51875;49.994;14.052;2023-02-17T04:01:46;98781.38;;;5.03;100.00
65276;BME280;51875;49.994;14.052;2023-02-17T04:03:02;98790.03;;;5.30;100.00
65276;BME280;51875;49.994;14.052;2023-02-17T04:04:17;98783.97;;;5.39;100.00
65276;BME280;51875;49.994;14.052;2023-02-17T04:05:33;98791.75;;;5.46;100.00
65276;BME280;51875;49.994;14.052;2023-02-17T04:06:49;98783.97;;;5.32;100.00
65276;BME280;51875;49.994;14.052;2023-02-17T04:08:04;98785.69;;;5.33;100.00
65276;BME280;51875;49.994;14.052;2023-02-17T04:09:20;98784.84;;;5.28;100.00
65276;BME280;51875;49.994;14.052;2023-02-17T04:10:35;98789.19;;;4.97;100.00
65276;BME280;51875;49.994;14.052;2023-02-17T04:11:51;98791.78;;;5.09;100.00
65276;BME280;51875;49.994;14.052;2023-02-17T04:13:07;98787.44;;;4.94;100.00
65276;BME280;51875;49.994;14.052;2023-02-17T04:14:22;98791.75;;;5.15;100.00
65276;BME280;51875;49.994;14.052;2023-02-17T04:15:38;98782.25;;;5.09;100.00
65276;BME280;51875;49.994;14.052;2023-02-17T04:16:54;98783.13;;;5.05;100.00
65276;BME280;51875;49.994;14.052;2023-02-17T04:18:09;98778.81;;;5.01;100.00
65276;BME280;51875;49.994;14.052;2023-02-17T04:19:25;98771.03;;;4.98;100.00
65276;BME280;51875;49.994;14.052;2023-02-17T04:20:41;98773.59;;;5.03;100.00
65276;BME280;51875;49.994;14.052;2023-02-17T04:21:57;98769.31;;;5.05;100.00
65276;BME280;51875;49.994;14.052;2023-02-17T04:23:12;98770.13;;;5.16;100.00
65276;BME280;51875;49.994;14.052;2023-02-17T04:24:29;98776.19;;;5.32;100.00
65276;BME280;51875;49.994;14.052;2023-02-17T04:25:45;98775.34;;;5.15;100.00
65276;BME280;51875;49.994;14.052;2023-02-17T04:27:01;98775.28;;;5.50;100.00
65276;BME280;51875;49.994;14.052;2023-02-17T04:28:17;98779.59;;;5.62;100.00
65276;BME280;51875;49.994;14.052;2023-02-17T04:29:33;98778.75;;;5.49;100.00
65276;BME280;51875;49.994;14.052;2023-02-17T04:30:52;98773.53;;;5.63;100.00
65276;BME280;51875;49.994;14.052;2023-02-17T04:32:11;98780.41;;;5.77;100.00
65276;BME280;51875;49.994;14.052;2023-02-17T04:33:26;98784.72;;;5.78;100.00
65276;BME280;51875;49.994;14.052;2023-02-17T04:34:42;98784.69;;;6.07;100.00
65276;BME280;51875;49.994;14.052;2023-02-17T04:35:58;98788.13;;;6.00;100.00
65276;BME280;51875;49.994;14.052;2023-02-17T04:37:14;98771.56;;;6.26;100.00
65276;BME280;51875;49.994;14.052;2023-02-17T04:38:31;98777.56;;;6.47;100.00
65276;BME280;51875;49.994;14.052;2023-02-17T04:39:46;98766.41;;;6.25;100.00
65276;BME280;51875;49.994;14.052;2023-02-17T04:41:03;98773.34;;;6.21;100.00
65276;BME280;51875;49.994;14.052;2023-02-17T04:42:20;98773.38;;;6.18;100.00
65276;BME280;51875;49.994;14.052;2023-02-17T04:43:35;98781.19;;;6.15;100.00
65276;BME280;51875;49.994;14.052;2023-02-17T04:44:51;98773.41;;;6.15;100.00
65276;BME280;51875;49.994;14.052;2023-02-17T04:46:07;98767.16;;;6.41;100.00
65276;BME280;51875;49.994;14.052;2023-02-17T04:47:22;98771.50;;;6.39;100.00
65276;BME280;51875;49.994;14.052;2023-02-17T04:48:38;98764.56;;;6.41;100.00
65276;BME280;51875;49.994;14.052;2023-02-17T04:49:54;98770.78;;;6.15;100.00
65276;BME280;51875;49.994;14.052;2023-02-17T04:51:09;98776.53;;;6.67;100.00
65276;BME280;51875;49.994;14.052;2023-02-17T04:52:25;98779.13;;;6.70;100.00
65276;BME280;51875;49.994;14.052;2023-02-17T04:53:40;98771.03;;;7.09;100.00
65276;BME280;51875;49.994;14.052;2023-02-17T04:54:56;98770.31;;;6.88;100.00
65276;BME280;51875;49.994;14.052;2023-02-17T04:56:12;98769.44;;;6.89;100.00
65276;BME280;51875;49.994;14.052;2023-02-17T04:57:27;98770.25;;;6.96;100.00
65276;BME280;51875;49.994;14.052;2023-02-17T04:58:43;98767.63;;;7.00;100.00
65276;BME280;51875;49.994;14.052;2023-02-17T04:59:59;98764.19;;;6.98;100.00
65276;BME280;51875;49.994;14.052;2023-02-17T05:01:14;98765.06;;;6.97;100.00
65276;BME280;51875;49.994;14.052;2023-02-17T05:02:30;98755.56;;;6.93;100.00
65276;BME280;51875;49.994;14.052;2023-02-17T05:03:46;98759.94;;;6.85;100.00
65276;BME280;51875;49.994;14.052;2023-02-17T05:05:02;98755.34;;;7.15;100.00
65276;BME280;51875;49.994;14.052;2023-02-17T05:06:17;98751.97;;;7.06;100.00
65276;BME280;51875;49.994;14.052;2023-02-17T05:07:33;98755.34;;;7.15;100.00
65276;BME280;51875;49.994;14.052;2023-02-17T05:08:48;98758.03;;;7.07;100.00
65276;BME280;51875;49.994;14.052;2023-02-17T05:10:05;98763.28;;;7.01;100.00
65276;BME280;51875;49.994;14.052;2023-02-17T05:11:21;98759.66;;;7.19;100.00
65276;BME280;51875;49.994;14.052;2023-02-17T05:12:36;98763.19;;;7.13;100.00
65276;BME280;51875;49.994;14.052;2023-02-17T05:13:52;98766.66;;;7.12;100.00
65276;BME280;51875;49.994;14.052;2023-02-17T05:15:09;98758.91;;;7.04;100.00
65276;BME280;51875;49.994;14.052;2023-02-17T05:16:24;98755.34;;;7.16;100.00
65276;BME280;51875;49.994;14.052;2023-02-17T05:17:40;98754.34;;;7.28;100.00
65276;BME280;51875;49.994;14.052;2023-02-17T05:18:55;98754.47;;;7.17;100.00
65276;BME280;51875;49.994;14.052;2023-02-17T05:20:11;98746.50;;;7.33;100.00
65276;BME280;51875;49.994;14.052;2023-02-17T05:21:27;98747.31;;;7.38;100.00
65276;BME280;51875;49.994;14.052;2023-02-17T05:22:43;98746.38;;;7.44;100.00
65276;BME280;51875;49.994;14.052;2023-02-17T05:23:58;98743.91;;;7.33;100.00
65276;BME280;51875;49.994;14.052;2023-02-17T05:25:14;98738.66;;;7.36;100.00
65276;BME280;51875;49.994;14.052;2023-02-17T05:26:30;98737.66;;;7.49;100.00
65276;BME280;51875;49.994;14.052;2023-02-17T05:27:46;98737.59;;;7.56;100.00
65276;BME280;51875;49.994;14.052;2023-02-17T05:29:01;98734.22;;;7.46;100.00
65276;BME280;51875;49.994;14.052;2023-02-17T05:30:17;98739.50;;;7.41;100.00
65276;BME280;51875;49.994;14.052;2023-02-17T05:31:33;98736.06;;;7.38;100.00
65276;BME280;51875;49.994;14.052;2023-02-17T05:32:49;98729.06;;;7.40;100.00
65276;BME280;51875;49.994;14.052;2023-02-17T05:34:04;98733.28;;;7.55;100.00
65276;BME280;51875;49.994;14.052;2023-02-17T05:35:20;98732.53;;;7.42;100.00
65276;BME280;51875;49.994;14.052;2023-02-17T05:36:36;98736.72;;;7.57;100.00
65276;BME280;51875;49.994;14.052;2023-02-17T05:37:51;98732.47;;;7.45;100.00
65276;BME280;51875;49.994;14.052;2023-02-17T05:39:06;98734.13;;;7.57;100.00
65276;BME280;51875;49.994;14.052;2023-02-17T05:40:23;98734.06;;;7.60;100.00
65276;BME280;51875;49.994;14.052;2023-02-17T05:41:39;98733.31;;;7.47;100.00
65276;BME280;51875;49.994;14.052;2023-02-17T05:42:54;98734.91;;;7.62;100.00
65276;BME280;51875;49.994;14.052;2023-02-17T05:44:10;98735.00;;;7.54;100.00
65276;BME280;51875;49.994;14.052;2023-02-17T05:45:26;98741.81;;;7.66;100.00
65276;BME280;51875;49.994;14.052;2023-02-17T05:46:41;98740.81;;;7.78;100.00
65276;BME280;51875;49.994;14.052;2023-02-17T05:47:57;98733.88;;;7.77;100.00
65276;BME280;51875;49.994;14.052;2023-02-17T05:49:12;98740.03;;;7.71;100.00
65276;BME280;51875;49.994;14.052;2023-02-17T05:50:28;98732.19;;;7.73;100.00
65276;BME280;51875;49.994;14.052;2023-02-17T05:51:44;98733.75;;;7.86;100.00
65276;BME280;51875;49.994;14.052;2023-02-17T05:53:00;98729.28;;;7.99;100.00
65276;BME280;51875;49.994;14.052;2023-02-17T05:54:15;98729.44;;;7.85;100.00
65276;BME280;51875;49.994;14.052;2023-02-17T05:55:31;98727.69;;;7.86;100.00
65276;BME280;51875;49.994;14.052;2023-02-17T05:56:46;98737.19;;;7.90;100.00
65276;BME280;51875;49.994;14.052;2023-02-17T05:58:02;98727.66;;;7.90;100.00
65276;BME280;51875;49.994;14.052;2023-02-17T05:59:18;98726.56;;;8.05;100.00
65276;BME280;51875;49.994;14.052;2023-02-17T06:00:34;98726.66;;;7.99;100.00
65276;BME280;51875;49.994;14.052;2023-02-17T06:01:50;98735.84;;;8.27;100.00
65276;BME280;51875;49.994;14.052;2023-02-17T06:03:05;98729.91;;;8.18;100.00
65276;BME280;51875;49.994;14.052;2023-02-17T06:04:21;98722.81;;;8.27;100.00
65276;BME280;51875;49.994;14.052;2023-02-17T06:05:37;98722.16;;;8.11;100.00
65276;BME280;51875;49.994;14.052;2023-02-17T06:06:53;98729.91;;;8.17;100.00
65276;BME280;51875;49.994;14.052;2023-02-17T06:08:08;98728.25;;;8.10;100.00
65276;BME280;51875;49.994;14.052;2023-02-17T06:09:24;98723.13;;;8.02;100.00
65276;BME280;51875;49.994;14.052;2023-02-17T06:10:41;98730.16;;;7.95;100.00
65276;BME280;51875;49.994;14.052;2023-02-17T06:11:56;98725.19;;;7.76;100.00
65276;BME280;51875;49.994;14.052;2023-02-17T06:13:12;98732.03;;;7.87;100.00
65276;BME280;51875;49.994;14.052;2023-02-17T06:14:28;98726.66;;;7.99;100.00
65276;BME280;51875;49.994;14.052;2023-02-17T06:15:43;98728.31;;;8.05;100.00
65276;BME280;51875;49.994;14.052;2023-02-17T06:16:59;98732.63;;;8.09;100.00
65276;BME280;51875;49.994;14.052;2023-02-17T06:18:16;98730.94;;;8.03;100.00
65276;BME280;51875;49.994;14.052;2023-02-17T06:19:32;98729.16;;;8.07;100.00
65276;BME280;51875;49.994;14.052;2023-02-17T06:20:47;98730.72;;;8.19;100.00
65276;BME280;51875;49.994;14.052;2023-02-17T06:22:03;98729.91;;;8.17;100.00
65276;BME280;51875;49.994;14.052;2023-02-17T06:23:18;98724.78;;;8.09;100.00
65276;BME280;51875;49.994;14.052;2023-02-17T06:24:35;98730.00;;;8.08;100.00
65276;BME280;51875;49.994;14.052;2023-02-17T06:25:50;98736.78;;;8.24;100.00
65276;BME280;51875;49.994;14.052;2023-02-17T06:27:06;98732.22;;;8.37;100.00
65276;BME280;51875;49.994;14.052;2023-02-17T06:28:22;98728.19;;;8.14;100.00
65276;BME280;51875;49.994;14.052;2023-02-17T06:29:37;98730.56;;;8.31;100.00
65276;BME280;51875;49.994;14.052;2023-02-17T06:30:53;98728.06;;;8.25;100.00
65276;BME280;51875;49.994;14.052;2023-02-17T06:32:09;98724.41;;;8.39;100.00
65276;BME280;51875;49.994;14.052;2023-02-17T06:33:25;98722.25;;;8.03;100.00
65276;BME280;51875;49.994;14.052;2023-02-17T06:34:40;98725.69;;;8.06;100.00
65276;BME280;51875;49.994;14.052;2023-02-17T06:35:56;98724.53;;;8.28;100.00
65276;BME280;51875;49.994;14.052;2023-02-17T06:37:12;98723.50;;;8.40;100.00
65276;BME280;51875;49.994;14.052;2023-02-17T06:38:27;98731.41;;;8.33;100.00
65276;BME280;51875;49.994;14.052;2023-02-17T06:39:43;98721.97;;;8.26;100.00
65276;BME280;51875;49.994;14.052;2023-02-17T06:40:59;98728.25;;;8.10;100.00
65276;BME280;51875;49.994;14.052;2023-02-17T06:42:14;98731.66;;;8.15;100.00
65276;BME280;51875;49.994;14.052;2023-02-17T06:43:30;98727.09;;;8.31;100.00
65276;BME280;51875;49.994;14.052;2023-02-17T06:44:46;98722.75;;;8.31;100.00
65276;BME280;51875;49.994;14.052;2023-02-17T06:46:02;98728.84;;;8.32;100.00
65276;BME280;51875;49.994;14.052;2023-02-17T06:47:18;98725.31;;;8.34;100.00
65276;BME280;51875;49.994;14.052;2023-02-17T06:48:33;98720.25;;;8.25;100.00
65276;BME280;51875;49.994;14.052;2023-02-17T06:49:49;98721.97;;;8.23;100.00
65276;BME280;51875;49.994;14.052;2023-02-17T06:51:05;98720.25;;;8.22;100.00
65276;BME280;51875;49.994;14.052;2023-02-17T06:52:21;98726.13;;;8.38;100.00
65276;BME280;51875;49.994;14.052;2023-02-17T06:53:36;98720.75;;;8.51;100.00
65276;BME280;51875;49.994;14.052;2023-02-17T06:54:52;98724.03;;;8.64;100.00
65276;BME280;51875;49.994;14.052;2023-02-17T06:56:08;98730.34;;;8.47;100.00
65276;BME280;51875;49.994;14.052;2023-02-17T06:57:23;98732.75;;;8.62;100.00
65276;BME280;51875;49.994;14.052;2023-02-17T06:58:39;98728.38;;;8.65;100.00
65276;BME280;51875;49.994;14.052;2023-02-17T06:59:54;98723.38;;;8.51;100.00
65276;BME280;51875;49.994;14.052;2023-02-17T07:01:19;98732.81;;;8.59;100.00
65276;BME280;51875;49.994;14.052;2023-02-17T07:02:38;98730.00;;;8.72;100.00
65276;BME280;51875;49.994;14.052;2023-02-17T07:03:55;98727.72;;;8.48;100.00
65276;BME280;51875;49.994;14.052;2023-02-17T07:05:11;98720.19;;;8.28;100.00